^^
Datos históricos de la estación: Murcia-Puente Tocinos
Diario Informe para Mayo 1, 2019 Unidades:  Métrico    Ingés   Ambas
Diario Semanal Mensual Anual
  Máxima: Mínima: Promedio:
Temperatura: 33.6 °C 22.7 °C 27.2 °C
Punto de rocio: 21.5 °C 15.8 °C 18.4 °C
Humedad: 75.2% 38% 60%
Velocidad viento: 22.1km/h 0km/h 7.7km/h
Racha viento: 37.8km/h - -
Viento- - SSE
Presión: 1012.2 hPa 1007.6 hPa -
Precipitación: 0.0 mm    
 
 
Tabla de datos para Mayo 1, 2019
Hora Temperatura Punto de rocio Presión Viento Velocidad viento Racha viento Humedad Intensidad lluvia(por hora) Nubes
00:04 25.2 °C 19.6 °C 1011.9 hPa NO 7.6 km/h 14.5 km/h 71.3% 0.0 mm
00:09 25.2 °C 19.6 °C 1011.8 hPa North 6.6 km/h 9.7 km/h 71% 0.0 mm
00:14 25.2 °C 19.6 °C 1011.8 hPa NNO 4.7 km/h 9.7 km/h 71% 0.0 mm
00:19 25.2 °C 19.4 °C 1011.8 hPa NNO 4.2 km/h 9.7 km/h 70.5% 0.0 mm
00:24 25.2 °C 19.3 °C 1011.8 hPa ONO 3.2 km/h 7.6 km/h 70% 0.0 mm
00:29 25.2 °C 19.3 °C 1011.8 hPa ONO 3.2 km/h 8 km/h 69.9% 0.0 mm
00:34 25.2 °C 19.1 °C 1011.9 hPa Oeste 3.2 km/h 8 km/h 69.1% 0.0 mm
00:39 25.2 °C 19.3 °C 1011.9 hPa Oeste 3.2 km/h 8 km/h 70% 0.0 mm
00:44 25.2 °C 19.3 °C 1011.9 hPa Oeste 3.2 km/h 8 km/h 70% 0.0 mm
00:49 25.2 °C 19.3 °C 1012.2 hPa Oeste 2.1 km/h   70% 0.0 mm
00:54 25.2 °C 19.3 °C 1012.2 hPa Calm   7.6 km/h 70% 0.0 mm
00:59 25.2 °C 19.3 °C 1012.2 hPa ESE 1.1 km/h 8 km/h 70% 0.0 mm
01:04 25.1 °C 19.3 °C 1012.2 hPa ESE 2.9 km/h 7.6 km/h 70% 0.0 mm
01:09 25.1 °C 19.2 °C 1012.2 hPa ESE 3 km/h 8 km/h 70% 0.0 mm
01:14 25.2 °C 19.5 °C 1012.2 hPa ESE 3.2 km/h 5.6 km/h 70.8% 0.0 mm
01:19 25.2 °C 19.4 °C 1012.2 hPa ESE 2.2 km/h 5.8 km/h 70.4% 0.0 mm
01:24 25.2 °C 19.6 °C 1012.0 hPa Calm   7.4 km/h 71% 0.0 mm
01:29 25.3 °C 19.6 °C 1012.0 hPa Sur 1.1 km/h 8 km/h 71% 0.0 mm
01:34 25.3 °C 19.7 °C 1012.0 hPa SSO 3.2 km/h 8 km/h 71% 0.0 mm
01:39 25.3 °C 19.7 °C 1011.9 hPa SSO 2.9 km/h 4.8 km/h 71% 0.0 mm
01:44 25.3 °C 19.5 °C 1011.9 hPa ENE 2.2 km/h 7.4 km/h 70.5% 0.0 mm
01:49 25.2 °C 19.3 °C 1011.9 hPa ONO 2.5 km/h 8 km/h 70% 0.0 mm
01:54 24.9 °C 19.3 °C 1011.7 hPa ONO 3.2 km/h 4.8 km/h 71% 0.0 mm
01:59 24.8 °C 19.2 °C 1011.7 hPa ONO 2.1 km/h 4.8 km/h 71.2% 0.0 mm
02:04 24.7 °C 19.3 °C 1011.7 hPa Calm   4.8 km/h 72% 0.0 mm
02:09 24.6 °C 19.2 °C 1011.7 hPa ONO 0.7 km/h 7.4 km/h 72% 0.0 mm
02:14 24.5 °C 19.1 °C 1011.7 hPa ONO 2.2 km/h 8 km/h 72% 0.0 mm
02:19 24.4 °C 19 °C 1011.7 hPa NO 2.2 km/h 7.4 km/h 72% 0.0 mm
02:24 24.4 °C 19 °C 1011.5 hPa NO 2.2 km/h 8 km/h 72% 0.0 mm
02:29 24.4 °C 19.1 °C 1011.5 hPa NO 2.5 km/h 6.4 km/h 72.4% 0.0 mm
02:34 24.4 °C 19.2 °C 1012.0 hPa ONO 2.9 km/h 8 km/h 73% 0.0 mm
02:39 24.4 °C 19.2 °C 1012.0 hPa ONO 2.7 km/h 3.2 km/h 73% 0.0 mm
02:44 24.4 °C 19.2 °C 1012.0 hPa ONO 2.2 km/h   73.1% 0.0 mm
02:49 24.5 °C 19.6 °C 1012.0 hPa SSE 1.5 km/h 7.4 km/h 74% 0.0 mm
02:54 24.6 °C 19.7 °C 1012.0 hPa Calm   8 km/h 74% 0.0 mm
02:59 24.7 °C 19.8 °C 1012.0 hPa ENE 1.1 km/h 6.4 km/h 74% 0.0 mm
03:04 24.7 °C 19.8 °C 1012.0 hPa ENE 2.9 km/h   74% 0.0 mm
03:09 24.7 °C 19.8 °C 1011.8 hPa Este 1.9 km/h 3.9 km/h 74% 0.0 mm
03:14 24.7 °C 19.6 °C 1011.8 hPa Calm   8.4 km/h 73.4% 0.0 mm
03:19 24.5 °C 19.5 °C 1012.0 hPa Sur 1.6 km/h 9.3 km/h 73.7% 0.0 mm
03:24 24.3 °C 19.4 °C 1012.0 hPa SSO 4.7 km/h 10 km/h 74% 0.0 mm
03:29 24.2 °C 19.2 °C 1012.0 hPa OSO 5.2 km/h 11.1 km/h 73.7% 0.0 mm
03:34 24.2 °C 19.1 °C 1012.0 hPa OSO 6.5 km/h 11.3 km/h 72.9% 0.0 mm
03:39 24.3 °C 18.9 °C 1011.8 hPa OSO 5.9 km/h 11.1 km/h 72% 0.0 mm
03:44 24.2 °C 18.8 °C 1011.8 hPa OSO 4.7 km/h 11.3 km/h 71.6% 0.0 mm
03:49 24.2 °C 18.5 °C 1011.8 hPa SSO 5 km/h 11.3 km/h 70.6% 0.0 mm
03:54 24.2 °C 18.4 °C 1011.4 hPa ESE 5.8 km/h 8.4 km/h 70% 0.0 mm
03:59 24.2 °C 18.4 °C 1011.4 hPa OSO 5.4 km/h 10 km/h 70% 0.0 mm
04:04 24.2 °C 18.3 °C 1011.4 hPa SO 4.7 km/h 11.9 km/h 69.4% 0.0 mm
04:09 24.2 °C 18.2 °C 1011.3 hPa SO 5.3 km/h 11.3 km/h 69% 0.0 mm
04:14 24.2 °C 18.2 °C 1011.3 hPa SSO 6.5 km/h 8.7 km/h 69% 0.0 mm
04:19 24.2 °C 18 °C 1011.3 hPa SO 5.9 km/h 9.7 km/h 68.1% 0.0 mm
04:24 24.3 °C 18 °C 1011.3 hPa SO 5 km/h 9.7 km/h 67.8% 0.0 mm
04:29 24.3 °C 17.7 °C 1011.3 hPa OSO 5 km/h 13 km/h 66.5% 0.0 mm
04:34 24.3 °C 17.6 °C 1011.3 hPa SO 5 km/h 13 km/h 66% 0.0 mm
04:39 24.2 °C 17.5 °C 1011.1 hPa SO 5.8 km/h 12.9 km/h 66% 0.0 mm
04:44 24.2 °C 17.5 °C 1011.1 hPa SSO 7.6 km/h 13.7 km/h 66.2% 0.0 mm
04:49 24.2 °C 17.7 °C 1011.1 hPa SSO 8 km/h 14.5 km/h 67.1% 0.0 mm
04:54 24.1 °C 17.8 °C 1011.1 hPa SSO 8.7 km/h 12.9 km/h 68% 0.0 mm
04:59 23.9 °C 17.6 °C 1011.1 hPa SO 7.8 km/h 11.9 km/h 68% 0.0 mm
05:04 23.8 °C 17.7 °C 1011.1 hPa OSO 6.5 km/h 11.9 km/h 68.8% 0.0 mm
05:09 23.8 °C 17.9 °C 1011.1 hPa Oeste 5.8 km/h 11.3 km/h 69.6% 0.0 mm
05:14 23.7 °C 17.6 °C 1011.1 hPa ONO 4.7 km/h 8 km/h 68.8% 0.0 mm
05:19 23.6 °C 17.4 °C 1011.1 hPa Oeste 4.8 km/h 10 km/h 68.1% 0.0 mm
05:24 23.5 °C 17.5 °C 1011.0 hPa OSO 5 km/h 13 km/h 69% 0.0 mm
05:29 23.4 °C 17.4 °C 1011.0 hPa SO 5.5 km/h 13 km/h 69% 0.0 mm
05:34 23.3 °C 17.3 °C 1011.6 hPa SO 6.5 km/h 11.3 km/h 69% 0.0 mm
05:39 23.3 °C 17.1 °C 1011.6 hPa SO 5.9 km/h 9.7 km/h 68.3% 0.0 mm
05:44 23.4 °C 17 °C 1011.6 hPa OSO 5 km/h 11.1 km/h 67.5% 0.0 mm
05:49 23.4 °C 16.9 °C 1011.6 hPa SO 5.5 km/h 11.3 km/h 67% 0.0 mm
05:54 23.4 °C 16.9 °C 1011.4 hPa SO 6.5 km/h 11.3 km/h 67% 0.0 mm
05:59 23.4 °C 16.8 °C 1011.4 hPa SO 6.2 km/h 12.2 km/h 66.3% 0.0 mm
06:04 23.3 °C 16.6 °C 1011.5 hPa SO 5.8 km/h 13 km/h 66% 0.0 mm
06:09 23.3 °C 16.6 °C 1011.5 hPa SO 6.2 km/h 12.9 km/h 66% 0.0 mm
06:14 23.3 °C 16.7 °C 1011.5 hPa SO 6.9 km/h 11.1 km/h 66.4% 0.0 mm
06:19 23.3 °C 16.8 °C 1011.5 hPa SO 6.8 km/h 11.3 km/h 67% 0.0 mm
06:24 23.3 °C 16.8 °C 1011.4 hPa OSO 6.5 km/h 11.3 km/h 67% 0.0 mm
06:29 23.3 °C 16.8 °C 1011.4 hPa OSO 6 km/h 9.3 km/h 67% 0.0 mm
06:34 23.2 °C 16.7 °C 1011.4 hPa Oeste 5 km/h 9.7 km/h 67% 0.0 mm
06:39 23.1 °C 16.8 °C 1011.1 hPa Oeste 4.9 km/h 9.7 km/h 67.6% 0.0 mm
06:44 23 °C 16.8 °C 1011.1 hPa Oeste 4.7 km/h 9.7 km/h 68% 0.0 mm
06:49 22.9 °C 16.7 °C 1011.1 hPa OSO 4.2 km/h 8 km/h 68% 0.0 mm
06:54 22.8 °C 16.8 °C 1011.0 hPa SO 3.2 km/h 8 km/h 68.7% 0.0 mm
06:59 22.8 °C 16.8 °C 1011.0 hPa SO 3.2 km/h 8 km/h 69% 0.0 mm
07:04 22.8 °C 16.8 °C 1011.1 hPa SSO 3.2 km/h 8 km/h 69% 0.0 mm
07:09 22.9 °C 16.9 °C 1011.1 hPa Sur 3.8 km/h 10 km/h 69% 0.0 mm
07:14 22.9 °C 16.8 °C 1011.1 hPa Sur 5 km/h 11.9 km/h 68.4% 0.0 mm
07:19 23 °C 16.8 °C 1011.4 hPa SSO 5.6 km/h 11.3 km/h 68% 0.0 mm
07:24 23 °C 16.8 °C 1011.4 hPa Sur 6.9 km/h 14.8 km/h 68.4% 0.0 mm
07:29 22.9 °C 16.9 °C 1011.4 hPa Sur 7.4 km/h 14.5 km/h 69.1% 0.0 mm
07:34 22.8 °C 17.1 °C 1011.6 hPa Sur 8.4 km/h 12.9 km/h 70% 0.0 mm
07:39 22.7 °C 17 °C 1011.6 hPa SSO 8.1 km/h 13 km/h 70% 0.0 mm
07:44 22.8 °C 17 °C 1011.6 hPa SSO 7.6 km/h 13 km/h 69.9% 0.0 mm
07:49 22.8 °C 16.9 °C 1011.6 hPa SO 7.8 km/h 13.7 km/h 69.3% 0.0 mm
07:54 22.9 °C 16.9 °C 1011.6 hPa OSO 8.4 km/h 14.5 km/h 69% 0.0 mm
07:59 23 °C 17 °C 1011.6 hPa SO 7.8 km/h 12.9 km/h 69% 0.0 mm
08:04 23.1 °C 17.1 °C 1011.6 hPa SSO 6.9 km/h 12.2 km/h 69% 0.0 mm
08:09 23.2 °C 17 °C 1011.6 hPa SSO 7.1 km/h 13 km/h 68.2% 0.0 mm
08:14 23.3 °C 17.1 °C 1011.6 hPa OSO 7.6 km/h 11.3 km/h 68% 0.0 mm
08:19 23.4 °C 17.2 °C 1011.6 hPa OSO 7 km/h 11.3 km/h 67.9% 0.0 mm
08:24 23.6 °C 17.1 °C 1011.5 hPa OSO 5.8 km/h 11.3 km/h 67.1% 0.0 mm
08:29 23.6 °C 17.3 °C 1011.5 hPa OSO 5.8 km/h 11.3 km/h 67.9% 0.0 mm
08:34 23.7 °C 17.2 °C 1011.5 hPa OSO 5.8 km/h 11.3 km/h 67% 0.0 mm
08:39 23.7 °C 17.3 °C 1011.5 hPa OSO 5.8 km/h 10 km/h 67.4% 0.0 mm
08:44 23.8 °C 17.3 °C 1011.5 hPa SO 5.8 km/h 9.7 km/h 67% 0.0 mm
08:49 23.8 °C 17.3 °C 1011.5 hPa Oeste 5.5 km/h 9.7 km/h 67% 0.0 mm
08:54 24 °C 17.4 °C 1011.2 hPa Oeste 5 km/h 9.5 km/h 66.4% 0.0 mm
08:59 24.2 °C 17.4 °C 1011.2 hPa SO 4.6 km/h 10 km/h 66% 0.0 mm
09:04 24.2 °C 17.4 °C 1011.4 hPa Oeste 3.9 km/h 9.7 km/h 65.8% 0.0 mm
09:09 24.3 °C 17.3 °C 1011.4 hPa OSO 4.1 km/h 11.1 km/h 65% 0.0 mm
09:14 24.4 °C 17.4 °C 1011.4 hPa OSO 4.7 km/h 11.3 km/h 65% 0.0 mm
09:19 24.4 °C 17.4 °C 1011.4 hPa NO 5.3 km/h 11.3 km/h 65% 0.0 mm
09:24 24.4 °C 17.4 °C 1011.0 hPa ONO 6.5 km/h 11.3 km/h 65% 0.0 mm
09:29 24.5 °C 17.4 °C 1011.0 hPa Oeste 6 km/h 11.3 km/h 65% 0.0 mm
09:34 24.7 °C 17.5 °C 1011.0 hPa NO 5 km/h 9.5 km/h 64.4% 0.0 mm
09:39 24.8 °C 17.5 °C 1011.0 hPa SSO 4.9 km/h 11.1 km/h 64.2% 0.0 mm
09:44 24.9 °C 17.6 °C 1011.0 hPa SO 4.7 km/h 11.3 km/h 64% 0.0 mm
09:49 25 °C 17.6 °C 1011.3 hPa SO 5 km/h 11.9 km/h 63.6% 0.0 mm
09:54 25.2 °C 17.7 °C 1011.3 hPa SO 5.8 km/h 11.9 km/h 63.1% 0.0 mm
09:59 25.3 °C 17.7 °C 1011.3 hPa Sur 6.2 km/h 13 km/h 62.5% 0.0 mm
10:04 25.5 °C 17.7 °C 1011.3 hPa SSO 6.9 km/h 13 km/h 62% 0.0 mm
10:09 25.7 °C 17.8 °C 1011.3 hPa OSO 6.9 km/h 13.7 km/h 61.6% 0.0 mm
10:14 25.8 °C 17.7 °C 1011.3 hPa SSO 6.9 km/h 14.5 km/h 61% 0.0 mm
10:19 26.1 °C 17.9 °C 1011.3 hPa SSO 6.5 km/h 11.1 km/h 60.7% 0.0 mm
10:24 26.2 °C 17.8 °C 1011.3 hPa SSO 5.8 km/h 11.3 km/h 60% 0.0 mm
10:29 26.3 °C 17.7 °C 1011.3 hPa SSO 6.2 km/h 13 km/h 59.4% 0.0 mm
10:34 26.4 °C 17.5 °C 1011.3 hPa Oeste 6.9 km/h 13 km/h 58% 0.0 mm
10:39 26.7 °C 17.4 °C 1011.2 hPa ONO 7.2 km/h 13 km/h 56.9% 0.0 mm
10:44 26.8 °C 17.5 °C 1011.2 hPa Oeste 7.6 km/h 12.9 km/h 56.7% 0.0 mm
10:49 27.1 °C 17.5 °C 1011.2 hPa Oeste 7 km/h 14.8 km/h 55.8% 0.0 mm
10:54 27.3 °C 17.4 °C 1011.2 hPa Oeste 5.8 km/h 16.7 km/h 54.8% 0.0 mm
10:59 27.4 °C 17.8 °C 1011.2 hPa OSO 6.9 km/h 16.7 km/h 55.6% 0.0 mm
11:04 27.4 °C 17.6 °C 1011.2 hPa SO 8.7 km/h 16.1 km/h 55% 0.0 mm
11:09 27.6 °C 17.8 °C 1011.2 hPa SSO 7.9 km/h 16.4 km/h 55.2% 0.0 mm
11:14 27.6 °C 17.8 °C 1011.2 hPa SSO 6.5 km/h 16.7 km/h 55% 0.0 mm
11:19 27.6 °C 17.6 °C 1011.3 hPa SSO 7.7 km/h 20.9 km/h 54.6% 0.0 mm
11:24 27.7 °C 17.6 °C 1011.3 hPa SSO 10.3 km/h 20.9 km/h 54% 0.0 mm
11:29 27.8 °C 17.5 °C 1011.3 hPa SSO 10.2 km/h 22.5 km/h 53.5% 0.0 mm
11:34 27.9 °C 17.2 °C 1011.4 hPa Sur 10 km/h 22.5 km/h 52.1% 0.0 mm
11:39 28.2 °C 17.1 °C 1011.4 hPa Sur 9.6 km/h 14.8 km/h 51% 0.0 mm
11:44 28.2 °C 16.7 °C 1011.4 hPa Sur 8.7 km/h 14.8 km/h 49.9% 0.0 mm
11:49 28.2 °C 16.5 °C 1011.4 hPa SSO 8.7 km/h 14.8 km/h 49.2% 0.0 mm
11:54 28.2 °C 16.5 °C 1011.4 hPa Sur 8.7 km/h 16.4 km/h 49.3% 0.0 mm
11:59 28.1 °C 16.4 °C 1011.4 hPa Sur 9 km/h 16.7 km/h 49% 0.0 mm
12:04 28.2 °C 16.4 °C 1011.7 hPa SSE 9.5 km/h 16.7 km/h 48.8% 0.0 mm
12:09 28.3 °C 16.3 °C 1011.7 hPa Sur 9.5 km/h 17.2 km/h 48% 0.0 mm
12:14 28.4 °C 16.1 °C 1011.7 hPa SSE 9.5 km/h 18.5 km/h 47.3% 0.0 mm
12:19 28.4 °C 16 °C 1011.7 hPa SSE 10.3 km/h 20.1 km/h 47% 0.0 mm
12:24 28.3 °C 15.9 °C 1011.4 hPa SSE 11.9 km/h 20.9 km/h 47% 0.0 mm
12:29 28.3 °C 16 °C 1011.4 hPa ESE 11.4 km/h 16.1 km/h 47.2% 0.0 mm
12:34 28.4 °C 15.9 °C 1011.4 hPa Este 10.3 km/h 12.9 km/h 46.7% 0.0 mm
12:39 28.6 °C 15.9 °C 1011.2 hPa ESE 8.8 km/h 13.7 km/h 46% 0.0 mm
12:44 28.8 °C 16 °C 1011.2 hPa NE 5.8 km/h 14.5 km/h 45.9% 0.0 mm
12:49 29.2 °C 16 °C 1011.2 hPa NE 5.4 km/h 11.1 km/h 44.9% 0.0 mm
12:54 29.5 °C 16 °C 1010.8 hPa ESE 4.7 km/h 18.3 km/h 44% 0.0 mm
12:59 29.5 °C 15.8 °C 1010.8 hPa SE 6.6 km/h 19.3 km/h 43.6% 0.0 mm
13:04 29.5 °C 16 °C 1011.0 hPa ESE 10 km/h 19.3 km/h 44.1% 0.0 mm
13:09 29.6 °C 16 °C 1011.0 hPa SE 10 km/h 16.7 km/h 43.8% 0.0 mm
13:14 29.5 °C 16 °C 1011.0 hPa SE 10 km/h 16.1 km/h 44% 0.0 mm
13:19 29.7 °C 16.2 °C 1011.5 hPa Sur 9.2 km/h 14.5 km/h 44.1% 0.0 mm
13:24 29.9 °C 16.3 °C 1011.5 hPa ESE 7.6 km/h 18.5 km/h 43.7% 0.0 mm
13:29 30.2 °C 16.2 °C 1011.5 hPa SE 7 km/h 19.3 km/h 43.1% 0.0 mm
13:34 30.4 °C 16.3 °C 1011.5 hPa NE 5.8 km/h 11.3 km/h 42.7% 0.0 mm
13:39 30.8 °C 16.4 °C 1011.2 hPa SSE 5.8 km/h 12.2 km/h 42% 0.0 mm
13:44 31 °C 16.5 °C 1011.2 hPa ENE 5.8 km/h 13 km/h 41.8% 0.0 mm
13:49 30.9 °C 16.2 °C 1011.2 hPa Este 6.4 km/h 25.6 km/h 41.2% 0.0 mm
13:54 30.7 °C 16.4 °C 1010.8 hPa ESE 7.6 km/h 26.2 km/h 42.3% 0.0 mm
13:59 30.7 °C 16.8 °C 1010.8 hPa ESE 9.9 km/h 25.9 km/h 43.5% 0.0 mm
14:04 30.6 °C 16.9 °C 1010.8 hPa Este 14 km/h 25.7 km/h 44% 0.0 mm
14:09 30.3 °C 16.7 °C 1009.9 hPa Este 12.2 km/h 16.1 km/h 44.1% 0.0 mm
14:14 30.2 °C 16.7 °C 1009.9 hPa ESE 8.7 km/h 11.9 km/h 44.2% 0.0 mm
14:19 30.2 °C 16.7 °C 1010.0 hPa Este 8.3 km/h 11.9 km/h 44.5% 0.0 mm
14:24 30.2 °C 16.7 °C 1010.0 hPa NE 7.6 km/h 20.4 km/h 44.6% 0.0 mm
14:29 30.1 °C 16.9 °C 1010.0 hPa NE 8.2 km/h 20.9 km/h 45% 0.0 mm
14:34 30.2 °C 16.9 °C 1010.0 hPa NNE 9.5 km/h 17.2 km/h 45% 0.0 mm
14:39 30.1 °C 17.1 °C 1009.2 hPa NE 9.9 km/h 24.1 km/h 45.8% 0.0 mm
14:44 29.9 °C 17 °C 1009.2 hPa NE 11.1 km/h 24.1 km/h 46.1% 0.0 mm
14:49 29.9 °C 17 °C 1009.4 hPa NE 10.6 km/h 14.8 km/h 46% 0.0 mm
14:54 29.9 °C 17 °C 1009.4 hPa ENE 9.5 km/h 14.5 km/h 46% 0.0 mm
14:59 30.2 °C 17 °C 1009.4 hPa ESE 7.8 km/h 10 km/h 45.4% 0.0 mm
15:04 30.2 °C 17 °C 1009.5 hPa NE 5 km/h 10 km/h 45% 0.0 mm
15:09 30.4 °C 17.2 °C 1009.5 hPa ESE 5.3 km/h 16.7 km/h 45% 0.0 mm
15:14 30.7 °C 17.2 °C 1009.5 hPa ENE 5.8 km/h 16.1 km/h 44.4% 0.0 mm
15:19 30.9 °C 17.1 °C 1009.5 hPa SSE 6.4 km/h 12.9 km/h 43.8% 0.0 mm
15:24 31.2 °C 17.3 °C 1009.5 hPa ESE 7.6 km/h 16.1 km/h 43.5% 0.0 mm
15:29 31.4 °C 16.8 °C 1009.5 hPa SE 7.6 km/h 16.7 km/h 41.6% 0.0 mm
15:34 31.4 °C 16.6 °C 1009.5 hPa SSE 7.6 km/h 16.1 km/h 41% 0.0 mm
15:39 31.4 °C 16.4 °C 1009.4 hPa SSO 7.6 km/h 13.7 km/h 40.7% 0.0 mm
15:44 31.4 °C 16.5 °C 1009.4 hPa SSO 7.6 km/h 14.5 km/h 40.8% 0.0 mm
15:49 31.7 °C 16.5 °C 1009.4 hPa SE 6.6 km/h 9.7 km/h 40.3% 0.0 mm
15:54 32 °C 16.2 °C 1009.3 hPa SO 4.7 km/h 11.9 km/h 38.9% 0.0 mm
15:59 32.2 °C 16.1 °C 1009.3 hPa SSE 4.7 km/h 15.6 km/h 38% 0.0 mm
16:04 31.9 °C 16 °C 1009.3 hPa Sur 4.7 km/h 16.1 km/h 38.5% 0.0 mm
16:09 31.8 °C 16.1 °C 1009.1 hPa SO 5.6 km/h 14.5 km/h 39% 0.0 mm
16:14 32 °C 16.3 °C 1009.1 hPa NNO 7.6 km/h 13 km/h 39.1% 0.0 mm
16:19 32.2 °C 16.3 °C 1009.1 hPa ENE 7.2 km/h 13 km/h 38.6% 0.0 mm
16:24 32.2 °C 16.5 °C 1009.0 hPa ENE 6.5 km/h 13 km/h 39% 0.0 mm
16:29 32.3 °C 16.5 °C 1009.0 hPa North 6.5 km/h 13 km/h 39% 0.0 mm
16:34 32.5 °C 16.6 °C 1009.0 hPa NNE 6.5 km/h 12.9 km/h 38.6% 0.0 mm
16:39 32.7 °C 16.8 °C 1008.7 hPa NNE 6.2 km/h 14.8 km/h 38.6% 0.0 mm
16:44 32.8 °C 17 °C 1008.7 hPa NE 5.8 km/h 14.8 km/h 38.8% 0.0 mm
16:49 32.8 °C 16.8 °C 1008.7 hPa NNE 6.8 km/h 14.8 km/h 38.2% 0.0 mm
16:54 32.8 °C 16.8 °C 1008.5 hPa NNE 8.7 km/h 14.5 km/h 38.2% 0.0 mm
16:59 33 °C 16.8 °C 1008.5 hPa NNE 8 km/h 18.5 km/h 38% 0.0 mm
17:04 33 °C 16.8 °C 1008.5 hPa NE 6.9 km/h 20.4 km/h 38% 0.0 mm
17:09 33 °C 16.8 °C 1008.3 hPa NE 8.1 km/h 20.9 km/h 38% 0.0 mm
17:14 33.2 °C 16.9 °C 1008.3 hPa NE 10.3 km/h 16.1 km/h 38% 0.0 mm
17:19 33.3 °C 17 °C 1008.3 hPa NE 9.9 km/h 20.4 km/h 38% 0.0 mm
17:24 33.3 °C 17 °C 1008.1 hPa NNE 8.7 km/h 20.9 km/h 38% 0.0 mm
17:29 33.3 °C 17.2 °C 1008.1 hPa NE 9.5 km/h 20.4 km/h 38.4% 0.0 mm
17:34 33.4 °C 17.3 °C 1008.1 hPa NE 11.1 km/h 20.9 km/h 38.4% 0.0 mm
17:39 33.3 °C 17.5 °C 1007.9 hPa NE 11.1 km/h 19 km/h 38.9% 0.0 mm
17:44 33.4 °C 17.5 °C 1007.9 hPa NE 11.1 km/h 20.1 km/h 38.8% 0.0 mm
17:49 33.5 °C 17.9 °C 1007.9 hPa NE 11.1 km/h 20.9 km/h 39.7% 0.0 mm
17:54 33.5 °C 18.5 °C 1007.8 hPa ENE 11.1 km/h 20.9 km/h 41.1% 0.0 mm
17:59 33.6 °C 18.2 °C 1007.8 hPa ENE 10.8 km/h 22 km/h 40.3% 0.0 mm
18:04 33.6 °C 19.1 °C 1007.8 hPa NE 10.3 km/h 22.5 km/h 42.4% 0.0 mm
18:09 33.5 °C 19.4 °C 1007.7 hPa NE 11.5 km/h 24.1 km/h 43.7% 0.0 mm
18:14 33.3 °C 19.7 °C 1007.7 hPa NNE 13.7 km/h 27.4 km/h 45% 0.0 mm
18:19 33.2 °C 20.1 °C 1007.7 hPa NE 14.3 km/h 27.8 km/h 46.3% 0.0 mm
18:24 33.1 °C 20.5 °C 1007.6 hPa NE 15.6 km/h 32.3 km/h 47.7% 0.0 mm
18:29 32.8 °C 20.4 °C 1007.6 hPa NE 15.8 km/h 33.8 km/h 48% 0.0 mm
18:34 33 °C 19.5 °C 1007.6 hPa Este 16.1 km/h 25.7 km/h 45% 0.0 mm
18:39 33.1 °C 19.3 °C 1007.6 hPa Este 14.1 km/h 20.9 km/h 44.3% 0.0 mm
18:44 33 °C 19.7 °C 1007.6 hPa ESE 10 km/h 28.2 km/h 45.7% 0.0 mm
18:49 32.5 °C 20.2 °C 1007.8 hPa ESE 12.5 km/h 31.5 km/h 48.2% 0.0 mm
18:54 32.1 °C 20.5 °C 1007.8 hPa ESE 17.2 km/h 33.5 km/h 50.5% 0.0 mm
18:59 31.5 °C 20.6 °C 1007.8 hPa ESE 17.9 km/h 33.8 km/h 52.4% 0.0 mm
19:04 31 °C 20.8 °C 1008.0 hPa ESE 19 km/h 35.9 km/h 54.5% 0.0 mm
19:09 30.7 °C 20.9 °C 1008.0 hPa ESE 20 km/h 35.4 km/h 56% 0.0 mm
19:14 30.3 °C 20.9 °C 1008.0 hPa ESE 22.1 km/h 32.2 km/h 57.1% 0.0 mm
19:19 30.3 °C 20.9 °C 1008.2 hPa ESE 21.2 km/h 37.8 km/h 57.5% 0.0 mm
19:24 29.8 °C 21.1 °C 1008.2 hPa ESE 19 km/h 37 km/h 59.4% 0.0 mm
19:29 29.7 °C 21.1 °C 1008.2 hPa ESE 18.8 km/h 30.6 km/h 60% 0.0 mm
19:34 29.7 °C 21 °C 1008.5 hPa ESE 18.4 km/h 33.3 km/h 60% 0.0 mm
19:39 29.5 °C 20.9 °C 1008.5 hPa ESE 18.2 km/h 33.8 km/h 60% 0.0 mm
19:44 29.4 °C 21 °C 1008.5 hPa ESE 18 km/h 32.2 km/h 60.8% 0.0 mm
19:49 29.2 °C 20.9 °C 1008.8 hPa ESE 18.4 km/h 30.6 km/h 61% 0.0 mm
19:54 29.2 °C 20.9 °C 1008.8 hPa ESE 19 km/h 27.4 km/h 61% 0.0 mm
19:59 29.2 °C 20.9 °C 1008.8 hPa ESE 17.9 km/h 25.9 km/h 61% 0.0 mm
20:04 29 °C 20.8 °C 1009.1 hPa ESE 16.1 km/h 25.7 km/h 61.6% 0.0 mm
20:09 28.8 °C 20.8 °C 1009.1 hPa ESE 16.1 km/h 28.2 km/h 62.1% 0.0 mm
20:14 28.7 °C 20.9 °C 1009.1 hPa ESE 16.1 km/h 29.6 km/h 63% 0.0 mm
20:19 28.4 °C 21 °C 1009.4 hPa ESE 16.5 km/h 31.5 km/h 64.1% 0.0 mm
20:24 28.3 °C 21.1 °C 1009.4 hPa Este 17.2 km/h 32.2 km/h 65% 0.0 mm
20:29 28.1 °C 21.2 °C 1009.4 hPa Este 16.9 km/h 33.3 km/h 66% 0.0 mm
20:34 27.9 °C 21.2 °C 1009.4 hPa ESE 16.4 km/h 33.8 km/h 67.1% 0.0 mm
20:39 27.8 °C 21.3 °C 1009.4 hPa ESE 16.1 km/h 29.6 km/h 68% 0.0 mm
20:44 27.6 °C 21.4 °C 1009.4 hPa ESE 15.6 km/h 25.7 km/h 68.8% 0.0 mm
20:49 27.5 °C 21.3 °C 1009.6 hPa ESE 15.3 km/h 27.4 km/h 69.2% 0.0 mm
20:54 27.3 °C 21.4 °C 1009.6 hPa ESE 14.8 km/h 27.8 km/h 70% 0.0 mm
20:59 27.3 °C 21.4 °C 1009.6 hPa Este 14.4 km/h 27.4 km/h 70.5% 0.0 mm
21:04 27.2 °C 21.5 °C 1010.2 hPa ESE 13.7 km/h 26.2 km/h 71% 0.0 mm
21:09 27.1 °C 21.5 °C 1010.2 hPa ESE 13.5 km/h 25.9 km/h 71.6% 0.0 mm
21:14 27 °C 21.5 °C 1010.2 hPa ESE 13 km/h 22.5 km/h 72% 0.0 mm
21:19 26.9 °C 21.4 °C 1010.3 hPa ESE 12.6 km/h 20.9 km/h 72% 0.0 mm
21:24 26.9 °C 21.5 °C 1010.3 hPa ESE 11.9 km/h 19.3 km/h 72% 0.0 mm
21:29 26.9 °C 21.3 °C 1010.3 hPa ESE 10.9 km/h 19 km/h 71.4% 0.0 mm
21:34 26.9 °C 21.3 °C 1010.6 hPa ESE 8.7 km/h 19.8 km/h 71.1% 0.0 mm
21:39 26.8 °C 21.4 °C 1010.6 hPa ESE 9.5 km/h 20.9 km/h 72% 0.0 mm
21:44 26.7 °C 21.4 °C 1010.6 hPa ESE 11.1 km/h 20.9 km/h 72.9% 0.0 mm
21:49 26.7 °C 21.4 °C 1010.6 hPa ESE 11.1 km/h 20.4 km/h 73% 0.0 mm
21:54 26.6 °C 21.3 °C 1010.6 hPa ESE 11.1 km/h 20.9 km/h 73% 0.0 mm
21:59 26.6 °C 21.3 °C 1010.6 hPa ESE 10.1 km/h 20.9 km/h 73% 0.0 mm
22:04 26.6 °C 21.3 °C 1011.0 hPa Este 8.7 km/h 9.7 km/h 73% 0.0 mm
22:09 26.6 °C 21.3 °C 1011.0 hPa ESE 7.4 km/h 11.1 km/h 73% 0.0 mm
22:14 26.6 °C 21.3 °C 1011.0 hPa SE 5 km/h 11.3 km/h 73% 0.0 mm
22:19 26.6 °C 21.3 °C 1011.1 hPa Este 4.9 km/h 9.7 km/h 73% 0.0 mm
22:24 26.6 °C 21.3 °C 1011.1 hPa ENE 4.7 km/h 9.7 km/h 73% 0.0 mm
22:29 26.4 °C 21.3 °C 1011.1 hPa NE 4.8 km/h 11.1 km/h 73.2% 0.0 mm
22:34 26.3 °C 21.3 °C 1011.3 hPa NNE 5 km/h 11.9 km/h 74% 0.0 mm
22:39 26.3 °C 21.3 °C 1011.3 hPa NE 5.9 km/h 11.9 km/h 74.3% 0.0 mm
22:44 26.2 °C 21.4 °C 1011.3 hPa NE 7.6 km/h 16.7 km/h 75% 0.0 mm
22:49 26.1 °C 21.3 °C 1011.6 hPa NE 7.6 km/h 16.1 km/h 75% 0.0 mm
22:54 26.1 °C 21.3 °C 1011.6 hPa ENE 7.6 km/h 11.3 km/h 75% 0.0 mm
22:59 26.1 °C 21.3 °C 1011.6 hPa NE 6.9 km/h 11.3 km/h 75% 0.0 mm
23:04 26.1 °C 21.3 °C 1011.7 hPa NE 5.8 km/h 10 km/h 75% 0.0 mm
23:09 26.1 °C 21.4 °C 1011.7 hPa ENE 5.8 km/h 10.3 km/h 75.1% 0.0 mm
23:14 26.1 °C 21.4 °C 1011.7 hPa ESE 5.8 km/h 15.6 km/h 75.2% 0.0 mm
23:19 26.1 °C 21.4 °C 1011.9 hPa SE 6.4 km/h 16.1 km/h 75.1% 0.0 mm
23:24 26.1 °C 21.3 °C 1011.9 hPa SE 7.6 km/h 14.5 km/h 75% 0.0 mm
23:29 26.1 °C 21.3 °C 1011.9 hPa SE 7.9 km/h 14.8 km/h 75% 0.0 mm
23:34 26.2 °C 21.4 °C 1012.0 hPa ESE 8.7 km/h 14.8 km/h 75% 0.0 mm
23:39 26.2 °C 21.3 °C 1012.0 hPa SE 8.7 km/h 14.5 km/h 74.3% 0.0 mm
23:44 26.2 °C 21.2 °C 1012.0 hPa SE 8.7 km/h 13 km/h 74% 0.0 mm
23:49 26.2 °C 21.2 °C 1012.0 hPa ESE 8.1 km/h 12.9 km/h 74% 0.0 mm
23:54 26.2 °C 21.2 °C 1012.0 hPa SE 6.9 km/h 9.7 km/h 73.8% 0.0 mm
23:59 26.2 °C 21 °C 1012.0 hPa SE 6.5 km/h 11.1 km/h 73% 0.0 mm
Murcia-Puente Tocinos, Espa?a
Compliments of Weather Underground - 3.25 mb

La estación de MeteoMurcia.com, publica sus datos en los siguientes proyectos:

Weather Underground PWS IMURCIAP2 Meteoclimatic www.awekas.at

Web Analytics

Clicky